sensor_id;sensor_type;location;lat;lon;timestamp;P1;durP1;ratioP1;P2;durP2;ratioP2
55009;SDS011;40903;51.638;7.528;2023-08-06T00:00:19;9.40;;;8.30;;
55009;SDS011;40903;51.638;7.528;2023-08-06T00:02:45;9.37;;;8.47;;
55009;SDS011;40903;51.638;7.528;2023-08-06T00:05:10;8.83;;;7.80;;
55009;SDS011;40903;51.638;7.528;2023-08-06T00:07:36;11.73;;;9.17;;
55009;SDS011;40903;51.638;7.528;2023-08-06T00:10:01;10.40;;;9.27;;
55009;SDS011;40903;51.638;7.528;2023-08-06T00:12:26;15.43;;;9.53;;
55009;SDS011;40903;51.638;7.528;2023-08-06T00:14:52;11.30;;;9.47;;
55009;SDS011;40903;51.638;7.528;2023-08-06T00:17:18;9.37;;;7.93;;
55009;SDS011;40903;51.638;7.528;2023-08-06T00:19:44;11.33;;;8.30;;
55009;SDS011;40903;51.638;7.528;2023-08-06T00:22:09;9.70;;;8.20;;
55009;SDS011;40903;51.638;7.528;2023-08-06T00:24:35;10.47;;;8.30;;
55009;SDS011;40903;51.638;7.528;2023-08-06T00:27:00;8.57;;;7.80;;
55009;SDS011;40903;51.638;7.528;2023-08-06T00:29:26;11.03;;;7.80;;
55009;SDS011;40903;51.638;7.528;2023-08-06T00:31:51;8.33;;;6.37;;
55009;SDS011;40903;51.638;7.528;2023-08-06T00:34:16;7.90;;;7.10;;
55009;SDS011;40903;51.638;7.528;2023-08-06T00:36:42;8.10;;;7.30;;
55009;SDS011;40903;51.638;7.528;2023-08-06T00:39:07;10.53;;;7.43;;
55009;SDS011;40903;51.638;7.528;2023-08-06T00:41:33;9.97;;;7.50;;
55009;SDS011;40903;51.638;7.528;2023-08-06T00:43:58;7.43;;;6.73;;
55009;SDS011;40903;51.638;7.528;2023-08-06T00:46:23;9.97;;;6.50;;
55009;SDS011;40903;51.638;7.528;2023-08-06T00:48:49;9.10;;;6.20;;
55009;SDS011;40903;51.638;7.528;2023-08-06T00:51:16;10.40;;;6.17;;
55009;SDS011;40903;51.638;7.528;2023-08-06T00:53:41;7.00;;;6.33;;
55009;SDS011;40903;51.638;7.528;2023-08-06T00:56:07;6.77;;;5.47;;
55009;SDS011;40903;51.638;7.528;2023-08-06T00:58:35;8.43;;;6.47;;
55009;SDS011;40903;51.638;7.528;2023-08-06T01:01:02;6.73;;;6.03;;
55009;SDS011;40903;51.638;7.528;2023-08-06T01:03:28;6.60;;;5.77;;
55009;SDS011;40903;51.638;7.528;2023-08-06T01:05:53;6.03;;;5.03;;
55009;SDS011;40903;51.638;7.528;2023-08-06T01:11:05;6.57;;;5.03;;
55009;SDS011;40903;51.638;7.528;2023-08-06T01:14:08;8.97;;;5.50;;
55009;SDS011;40903;51.638;7.528;2023-08-06T01:16:41;6.10;;;5.10;;
55009;SDS011;40903;51.638;7.528;2023-08-06T01:19:15;5.00;;;4.60;;
55009;SDS011;40903;51.638;7.528;2023-08-06T01:21:44;5.53;;;4.80;;
55009;SDS011;40903;51.638;7.528;2023-08-06T01:24:09;5.00;;;4.60;;
55009;SDS011;40903;51.638;7.528;2023-08-06T01:26:37;6.43;;;4.90;;
55009;SDS011;40903;51.638;7.528;2023-08-06T01:29:10;5.87;;;4.57;;
55009;SDS011;40903;51.638;7.528;2023-08-06T01:31:38;9.33;;;5.53;;
55009;SDS011;40903;51.638;7.528;2023-08-06T01:36:52;5.40;;;4.90;;
55009;SDS011;40903;51.638;7.528;2023-08-06T01:39:18;5.10;;;4.57;;
55009;SDS011;40903;51.638;7.528;2023-08-06T01:41:47;11.13;;;4.70;;
55009;SDS011;40903;51.638;7.528;2023-08-06T01:44:13;5.00;;;4.50;;
55009;SDS011;40903;51.638;7.528;2023-08-06T01:46:39;7.87;;;4.67;;
55009;SDS011;40903;51.638;7.528;2023-08-06T01:49:04;5.33;;;4.60;;
55009;SDS011;40903;51.638;7.528;2023-08-06T01:51:29;5.10;;;4.57;;
55009;SDS011;40903;51.638;7.528;2023-08-06T01:53:54;5.10;;;4.60;;
55009;SDS011;40903;51.638;7.528;2023-08-06T01:56:20;6.87;;;4.33;;
55009;SDS011;40903;51.638;7.528;2023-08-06T01:58:45;5.10;;;4.60;;
55009;SDS011;40903;51.638;7.528;2023-08-06T02:01:11;5.53;;;4.60;;
55009;SDS011;40903;51.638;7.528;2023-08-06T02:03:36;5.83;;;4.87;;
55009;SDS011;40903;51.638;7.528;2023-08-06T02:06:01;7.40;;;4.87;;
55009;SDS011;40903;51.638;7.528;2023-08-06T02:08:27;7.97;;;4.37;;
55009;SDS011;40903;51.638;7.528;2023-08-06T02:10:52;5.60;;;4.37;;
55009;SDS011;40903;51.638;7.528;2023-08-06T02:13:18;7.43;;;4.77;;
55009;SDS011;40903;51.638;7.528;2023-08-06T02:15:44;5.47;;;4.80;;
55009;SDS011;40903;51.638;7.528;2023-08-06T02:18:12;6.80;;;4.67;;
55009;SDS011;40903;51.638;7.528;2023-08-06T02:20:38;4.63;;;4.20;;
55009;SDS011;40903;51.638;7.528;2023-08-06T02:23:03;5.93;;;4.57;;
55009;SDS011;40903;51.638;7.528;2023-08-06T02:25:29;4.70;;;4.30;;
55009;SDS011;40903;51.638;7.528;2023-08-06T02:27:54;4.87;;;4.37;;
55009;SDS011;40903;51.638;7.528;2023-08-06T02:30:19;4.93;;;4.43;;
55009;SDS011;40903;51.638;7.528;2023-08-06T02:32:45;5.33;;;4.30;;
55009;SDS011;40903;51.638;7.528;2023-08-06T02:35:10;5.00;;;4.50;;
55009;SDS011;40903;51.638;7.528;2023-08-06T02:37:35;5.50;;;4.30;;
55009;SDS011;40903;51.638;7.528;2023-08-06T02:40:01;5.73;;;4.57;;
55009;SDS011;40903;51.638;7.528;2023-08-06T02:42:27;4.87;;;4.07;;
55009;SDS011;40903;51.638;7.528;2023-08-06T02:44:52;4.80;;;4.33;;
55009;SDS011;40903;51.638;7.528;2023-08-06T02:47:20;7.00;;;4.30;;
55009;SDS011;40903;51.638;7.528;2023-08-06T02:49:45;4.57;;;4.20;;
55009;SDS011;40903;51.638;7.528;2023-08-06T02:52:11;5.03;;;4.10;;
55009;SDS011;40903;51.638;7.528;2023-08-06T02:54:36;4.57;;;4.13;;
55009;SDS011;40903;51.638;7.528;2023-08-06T02:57:01;4.10;;;3.80;;
55009;SDS011;40903;51.638;7.528;2023-08-06T02:59:27;7.73;;;4.13;;
55009;SDS011;40903;51.638;7.528;2023-08-06T03:01:52;5.40;;;3.63;;
55009;SDS011;40903;51.638;7.528;2023-08-06T03:04:17;4.10;;;3.67;;
55009;SDS011;40903;51.638;7.528;2023-08-06T03:06:43;4.00;;;3.70;;
55009;SDS011;40903;51.638;7.528;2023-08-06T03:09:08;3.93;;;3.53;;
55009;SDS011;40903;51.638;7.528;2023-08-06T03:11:34;5.10;;;4.60;;
55009;SDS011;40903;51.638;7.528;2023-08-06T03:13:59;6.07;;;3.70;;
55009;SDS011;40903;51.638;7.528;2023-08-06T03:16:24;5.43;;;4.03;;
55009;SDS011;40903;51.638;7.528;2023-08-06T03:18:50;4.53;;;4.00;;
55009;SDS011;40903;51.638;7.528;2023-08-06T03:21:15;4.93;;;3.60;;
55009;SDS011;40903;51.638;7.528;2023-08-06T03:23:40;4.00;;;3.60;;
55009;SDS011;40903;51.638;7.528;2023-08-06T03:26:06;4.13;;;3.73;;
55009;SDS011;40903;51.638;7.528;2023-08-06T03:28:31;4.23;;;3.47;;
55009;SDS011;40903;51.638;7.528;2023-08-06T03:31:00;4.47;;;3.67;;
55009;SDS011;40903;51.638;7.528;2023-08-06T03:33:26;4.93;;;3.97;;
55009;SDS011;40903;51.638;7.528;2023-08-06T03:35:52;3.87;;;3.53;;
55009;SDS011;40903;51.638;7.528;2023-08-06T03:38:17;3.90;;;3.60;;
55009;SDS011;40903;51.638;7.528;2023-08-06T03:40:42;6.10;;;3.80;;
55009;SDS011;40903;51.638;7.528;2023-08-06T03:43:08;4.80;;;3.60;;
55009;SDS011;40903;51.638;7.528;2023-08-06T03:45:33;3.40;;;3.20;;
55009;SDS011;40903;51.638;7.528;2023-08-06T03:47:59;4.07;;;3.77;;
55009;SDS011;40903;51.638;7.528;2023-08-06T03:50:24;4.07;;;3.57;;
55009;SDS011;40903;51.638;7.528;2023-08-06T03:52:50;4.90;;;3.60;;
55009;SDS011;40903;51.638;7.528;2023-08-06T03:55:15;4.30;;;3.90;;
55009;SDS011;40903;51.638;7.528;2023-08-06T03:57:40;5.97;;;4.30;;
55009;SDS011;40903;51.638;7.528;2023-08-06T04:00:06;4.07;;;3.67;;
55009;SDS011;40903;51.638;7.528;2023-08-06T04:02:32;4.07;;;3.50;;
55009;SDS011;40903;51.638;7.528;2023-08-06T04:05:00;4.30;;;3.90;;
55009;SDS011;40903;51.638;7.528;2023-08-06T04:07:26;4.97;;;4.47;;
55009;SDS011;40903;51.638;7.528;2023-08-06T04:09:52;5.07;;;4.20;;
55009;SDS011;40903;51.638;7.528;2023-08-06T04:12:19;4.40;;;3.93;;
55009;SDS011;40903;51.638;7.528;2023-08-06T04:14:44;7.03;;;4.37;;
55009;SDS011;40903;51.638;7.528;2023-08-06T04:17:09;6.00;;;4.57;;
55009;SDS011;40903;51.638;7.528;2023-08-06T04:19:35;5.60;;;4.30;;
55009;SDS011;40903;51.638;7.528;2023-08-06T04:22:00;6.53;;;5.07;;
55009;SDS011;40903;51.638;7.528;2023-08-06T04:24:25;7.10;;;4.60;;
55009;SDS011;40903;51.638;7.528;2023-08-06T04:26:51;5.40;;;4.77;;
55009;SDS011;40903;51.638;7.528;2023-08-06T04:29:16;5.43;;;4.80;;
55009;SDS011;40903;51.638;7.528;2023-08-06T04:31:41;8.07;;;5.20;;
55009;SDS011;40903;51.638;7.528;2023-08-06T04:34:07;7.00;;;5.17;;
55009;SDS011;40903;51.638;7.528;2023-08-06T04:36:34;5.60;;;4.87;;
55009;SDS011;40903;51.638;7.528;2023-08-06T04:38:59;6.27;;;4.93;;
55009;SDS011;40903;51.638;7.528;2023-08-06T04:41:24;7.53;;;5.17;;
55009;SDS011;40903;51.638;7.528;2023-08-06T04:43:50;7.17;;;5.30;;
55009;SDS011;40903;51.638;7.528;2023-08-06T04:46:15;6.97;;;5.67;;
55009;SDS011;40903;51.638;7.528;2023-08-06T04:48:40;6.13;;;4.90;;
55009;SDS011;40903;51.638;7.528;2023-08-06T04:51:06;6.43;;;5.23;;
55009;SDS011;40903;51.638;7.528;2023-08-06T04:53:31;5.17;;;4.77;;
55009;SDS011;40903;51.638;7.528;2023-08-06T04:55:56;6.23;;;5.20;;
55009;SDS011;40903;51.638;7.528;2023-08-06T04:58:22;5.03;;;4.63;;
55009;SDS011;40903;51.638;7.528;2023-08-06T05:00:47;5.80;;;4.90;;
55009;SDS011;40903;51.638;7.528;2023-08-06T05:03:13;4.53;;;4.13;;
55009;SDS011;40903;51.638;7.528;2023-08-06T05:05:39;4.93;;;4.30;;
55009;SDS011;40903;51.638;7.528;2023-08-06T05:08:06;5.53;;;4.97;;
55009;SDS011;40903;51.638;7.528;2023-08-06T05:10:31;5.83;;;4.47;;
55009;SDS011;40903;51.638;7.528;2023-08-06T05:12:57;4.97;;;4.47;;
55009;SDS011;40903;51.638;7.528;2023-08-06T05:15:22;4.87;;;4.47;;
55009;SDS011;40903;51.638;7.528;2023-08-06T05:17:50;7.20;;;5.00;;
55009;SDS011;40903;51.638;7.528;2023-08-06T05:20:15;5.83;;;4.33;;
55009;SDS011;40903;51.638;7.528;2023-08-06T05:22:42;6.07;;;5.40;;
55009;SDS011;40903;51.638;7.528;2023-08-06T05:25:07;5.90;;;4.57;;
55009;SDS011;40903;51.638;7.528;2023-08-06T05:27:33;5.53;;;5.03;;
55009;SDS011;40903;51.638;7.528;2023-08-06T05:29:58;8.10;;;4.87;;
55009;SDS011;40903;51.638;7.528;2023-08-06T05:32:24;5.40;;;4.60;;
55009;SDS011;40903;51.638;7.528;2023-08-06T05:34:49;5.47;;;4.97;;
55009;SDS011;40903;51.638;7.528;2023-08-06T05:37:14;5.47;;;4.97;;
55009;SDS011;40903;51.638;7.528;2023-08-06T05:39:40;5.37;;;4.57;;
55009;SDS011;40903;51.638;7.528;2023-08-06T05:42:05;5.07;;;4.53;;
55009;SDS011;40903;51.638;7.528;2023-08-06T05:44:31;7.17;;;5.20;;
55009;SDS011;40903;51.638;7.528;2023-08-06T05:46:57;6.73;;;5.40;;
55009;SDS011;40903;51.638;7.528;2023-08-06T05:49:22;5.80;;;5.10;;
55009;SDS011;40903;51.638;7.528;2023-08-06T05:51:47;6.37;;;5.40;;
55009;SDS011;40903;51.638;7.528;2023-08-06T05:54:13;6.83;;;5.20;;
55009;SDS011;40903;51.638;7.528;2023-08-06T05:56:39;5.93;;;4.43;;
55009;SDS011;40903;51.638;7.528;2023-08-06T05:59:04;5.93;;;5.33;;
55009;SDS011;40903;51.638;7.528;2023-08-06T06:01:29;5.50;;;5.00;;
55009;SDS011;40903;51.638;7.528;2023-08-06T06:03:55;5.93;;;5.10;;
55009;SDS011;40903;51.638;7.528;2023-08-06T06:06:20;6.47;;;5.40;;
55009;SDS011;40903;51.638;7.528;2023-08-06T06:08:45;5.80;;;5.27;;
55009;SDS011;40903;51.638;7.528;2023-08-06T06:11:11;4.97;;;4.57;;
55009;SDS011;40903;51.638;7.528;2023-08-06T06:13:36;6.63;;;4.63;;
55009;SDS011;40903;51.638;7.528;2023-08-06T06:16:02;6.03;;;4.60;;
55009;SDS011;40903;51.638;7.528;2023-08-06T06:18:27;7.20;;;5.17;;
55009;SDS011;40903;51.638;7.528;2023-08-06T06:20:52;7.03;;;4.60;;
55009;SDS011;40903;51.638;7.528;2023-08-06T06:23:18;6.70;;;4.73;;
55009;SDS011;40903;51.638;7.528;2023-08-06T06:25:44;5.93;;;4.20;;
55009;SDS011;40903;51.638;7.528;2023-08-06T06:28:13;9.73;;;4.33;;
55009;SDS011;40903;51.638;7.528;2023-08-06T06:30:38;5.53;;;4.20;;
55009;SDS011;40903;51.638;7.528;2023-08-06T06:33:04;6.63;;;4.30;;
55009;SDS011;40903;51.638;7.528;2023-08-06T06:35:29;4.57;;;4.17;;
55009;SDS011;40903;51.638;7.528;2023-08-06T06:37:54;7.90;;;4.23;;
55009;SDS011;40903;51.638;7.528;2023-08-06T06:40:20;6.23;;;3.93;;
55009;SDS011;40903;51.638;7.528;2023-08-06T06:42:45;3.90;;;3.60;;
55009;SDS011;40903;51.638;7.528;2023-08-06T06:45:10;4.47;;;3.40;;
55009;SDS011;40903;51.638;7.528;2023-08-06T06:47:36;4.07;;;3.63;;
55009;SDS011;40903;51.638;7.528;2023-08-06T06:50:01;4.27;;;3.70;;
55009;SDS011;40903;51.638;7.528;2023-08-06T06:52:27;3.33;;;2.70;;
55009;SDS011;40903;51.638;7.528;2023-08-06T06:54:52;5.20;;;2.70;;
55009;SDS011;40903;51.638;7.528;2023-08-06T06:57:17;4.20;;;2.33;;
55009;SDS011;40903;51.638;7.528;2023-08-06T06:59:43;3.57;;;2.60;;
55009;SDS011;40903;51.638;7.528;2023-08-06T07:02:08;3.03;;;2.40;;
55009;SDS011;40903;51.638;7.528;2023-08-06T07:04:33;3.43;;;2.60;;
55009;SDS011;40903;51.638;7.528;2023-08-06T07:06:59;2.60;;;2.40;;
55009;SDS011;40903;51.638;7.528;2023-08-06T07:09:24;4.87;;;2.90;;
55009;SDS011;40903;51.638;7.528;2023-08-06T07:11:50;4.20;;;2.87;;
55009;SDS011;40903;51.638;7.528;2023-08-06T07:14:16;7.07;;;3.00;;
55009;SDS011;40903;51.638;7.528;2023-08-06T07:16:42;4.10;;;2.93;;
55009;SDS011;40903;51.638;7.528;2023-08-06T07:19:07;5.63;;;2.70;;
55009;SDS011;40903;51.638;7.528;2023-08-06T07:21:33;5.40;;;3.10;;
55009;SDS011;40903;51.638;7.528;2023-08-06T07:23:58;3.03;;;2.70;;
55009;SDS011;40903;51.638;7.528;2023-08-06T07:26:24;3.17;;;2.37;;
55009;SDS011;40903;51.638;7.528;2023-08-06T07:28:50;5.80;;;2.93;;
55009;SDS011;40903;51.638;7.528;2023-08-06T07:31:15;3.17;;;2.57;;
55009;SDS011;40903;51.638;7.528;2023-08-06T07:33:41;2.43;;;2.23;;
55009;SDS011;40903;51.638;7.528;2023-08-06T07:36:13;3.30;;;2.60;;
55009;SDS011;40903;51.638;7.528;2023-08-06T07:38:39;3.37;;;2.67;;
55009;SDS011;40903;51.638;7.528;2023-08-06T07:41:05;4.63;;;2.50;;
55009;SDS011;40903;51.638;7.528;2023-08-06T07:43:30;4.00;;;2.30;;
55009;SDS011;40903;51.638;7.528;2023-08-06T07:45:59;5.10;;;2.40;;
55009;SDS011;40903;51.638;7.528;2023-08-06T07:48:25;3.20;;;2.83;;
55009;SDS011;40903;51.638;7.528;2023-08-06T07:50:52;5.37;;;2.50;;
55009;SDS011;40903;51.638;7.528;2023-08-06T07:53:19;2.90;;;2.37;;
55009;SDS011;40903;51.638;7.528;2023-08-06T07:55:50;3.70;;;2.70;;
55009;SDS011;40903;51.638;7.528;2023-08-06T07:58:16;3.43;;;2.40;;
55009;SDS011;40903;51.638;7.528;2023-08-06T08:00:42;2.57;;;2.23;;
55009;SDS011;40903;51.638;7.528;2023-08-06T08:03:10;3.87;;;3.10;;
55009;SDS011;40903;51.638;7.528;2023-08-06T08:05:39;3.77;;;2.83;;
55009;SDS011;40903;51.638;7.528;2023-08-06T08:08:04;3.90;;;2.60;;
55009;SDS011;40903;51.638;7.528;2023-08-06T08:10:30;4.43;;;2.57;;
55009;SDS011;40903;51.638;7.528;2023-08-06T08:12:56;2.43;;;2.23;;
55009;SDS011;40903;51.638;7.528;2023-08-06T08:15:21;2.70;;;2.40;;
55009;SDS011;40903;51.638;7.528;2023-08-06T08:17:47;3.73;;;2.70;;
55009;SDS011;40903;51.638;7.528;2023-08-06T08:20:13;4.03;;;2.50;;
55009;SDS011;40903;51.638;7.528;2023-08-06T08:22:38;5.10;;;2.87;;
55009;SDS011;40903;51.638;7.528;2023-08-06T08:25:04;3.70;;;2.83;;
55009;SDS011;40903;51.638;7.528;2023-08-06T08:27:30;4.80;;;3.20;;
55009;SDS011;40903;51.638;7.528;2023-08-06T08:29:55;6.37;;;4.17;;
55009;SDS011;40903;51.638;7.528;2023-08-06T08:32:21;4.80;;;3.10;;
55009;SDS011;40903;51.638;7.528;2023-08-06T08:34:46;3.47;;;2.90;;
55009;SDS011;40903;51.638;7.528;2023-08-06T08:37:12;3.27;;;2.60;;
55009;SDS011;40903;51.638;7.528;2023-08-06T08:39:38;4.53;;;3.23;;
55009;SDS011;40903;51.638;7.528;2023-08-06T08:42:04;5.67;;;2.90;;
55009;SDS011;40903;51.638;7.528;2023-08-06T08:44:31;3.97;;;3.53;;
55009;SDS011;40903;51.638;7.528;2023-08-06T08:46:59;4.87;;;3.83;;
55009;SDS011;40903;51.638;7.528;2023-08-06T08:49:24;4.33;;;3.90;;
55009;SDS011;40903;51.638;7.528;2023-08-06T08:51:52;4.43;;;3.83;;
55009;SDS011;40903;51.638;7.528;2023-08-06T08:54:18;3.80;;;3.40;;
55009;SDS011;40903;51.638;7.528;2023-08-06T08:56:44;4.00;;;3.60;;
55009;SDS011;40903;51.638;7.528;2023-08-06T08:59:10;3.47;;;2.83;;
55009;SDS011;40903;51.638;7.528;2023-08-06T09:01:35;2.90;;;2.50;;
55009;SDS011;40903;51.638;7.528;2023-08-06T09:04:04;3.13;;;2.63;;
55009;SDS011;40903;51.638;7.528;2023-08-06T09:06:30;3.17;;;2.80;;
55009;SDS011;40903;51.638;7.528;2023-08-06T09:09:06;4.33;;;3.43;;
55009;SDS011;40903;51.638;7.528;2023-08-06T09:11:35;4.00;;;2.30;;
55009;SDS011;40903;51.638;7.528;2023-08-06T09:14:06;2.70;;;2.50;;
55009;SDS011;40903;51.638;7.528;2023-08-06T09:16:34;4.17;;;2.57;;
55009;SDS011;40903;51.638;7.528;2023-08-06T09:19:09;3.47;;;2.90;;
55009;SDS011;40903;51.638;7.528;2023-08-06T09:21:41;3.93;;;2.63;;
55009;SDS011;40903;51.638;7.528;2023-08-06T09:24:11;3.77;;;2.70;;
55009;SDS011;40903;51.638;7.528;2023-08-06T09:26:38;2.43;;;2.23;;
55009;SDS011;40903;51.638;7.528;2023-08-06T09:29:05;2.40;;;2.20;;
55009;SDS011;40903;51.638;7.528;2023-08-06T09:31:32;3.47;;;2.57;;
55009;SDS011;40903;51.638;7.528;2023-08-06T09:34:19;3.00;;;2.70;;
55009;SDS011;40903;51.638;7.528;2023-08-06T09:36:47;3.73;;;2.47;;
55009;SDS011;40903;51.638;7.528;2023-08-06T09:39:16;2.63;;;2.40;;
55009;SDS011;40903;51.638;7.528;2023-08-06T09:41:43;2.97;;;2.67;;
55009;SDS011;40903;51.638;7.528;2023-08-06T09:46:50;2.23;;;2.03;;
55009;SDS011;40903;51.638;7.528;2023-08-06T09:49:20;3.77;;;2.00;;
55009;SDS011;40903;51.638;7.528;2023-08-06T09:51:50;2.93;;;1.63;;
55009;SDS011;40903;51.638;7.528;2023-08-06T09:54:17;3.47;;;1.80;;
55009;SDS011;40903;51.638;7.528;2023-08-06T09:56:44;2.33;;;1.90;;
55009;SDS011;40903;51.638;7.528;2023-08-06T09:59:09;2.57;;;1.60;;
55009;SDS011;40903;51.638;7.528;2023-08-06T10:01:38;2.70;;;1.93;;
55009;SDS011;40903;51.638;7.528;2023-08-06T10:04:04;2.77;;;2.27;;
55009;SDS011;40903;51.638;7.528;2023-08-06T10:06:35;3.83;;;2.07;;
55009;SDS011;40903;51.638;7.528;2023-08-06T10:09:02;3.73;;;2.20;;
55009;SDS011;40903;51.638;7.528;2023-08-06T10:11:27;3.77;;;2.10;;
55009;SDS011;40903;51.638;7.528;2023-08-06T10:14:02;3.60;;;2.30;;
55009;SDS011;40903;51.638;7.528;2023-08-06T10:16:31;2.83;;;2.20;;
55009;SDS011;40903;51.638;7.528;2023-08-06T10:18:58;3.03;;;2.70;;
55009;SDS011;40903;51.638;7.528;2023-08-06T10:21:24;3.87;;;2.53;;
55009;SDS011;40903;51.638;7.528;2023-08-06T10:23:55;3.07;;;2.50;;
55009;SDS011;40903;51.638;7.528;2023-08-06T10:26:20;7.27;;;4.50;;
55009;SDS011;40903;51.638;7.528;2023-08-06T10:28:50;4.90;;;3.30;;
55009;SDS011;40903;51.638;7.528;2023-08-06T10:31:15;3.37;;;2.40;;
55009;SDS011;40903;51.638;7.528;2023-08-06T10:33:44;2.30;;;2.07;;
55009;SDS011;40903;51.638;7.528;2023-08-06T10:36:10;2.20;;;1.97;;
55009;SDS011;40903;51.638;7.528;2023-08-06T10:38:46;4.27;;;2.00;;
55009;SDS011;40903;51.638;7.528;2023-08-06T10:41:23;1.90;;;1.67;;
55009;SDS011;40903;51.638;7.528;2023-08-06T10:44:04;1.60;;;1.50;;
55009;SDS011;40903;51.638;7.528;2023-08-06T10:46:30;1.63;;;1.53;;
55009;SDS011;40903;51.638;7.528;2023-08-06T10:48:56;4.13;;;2.10;;
55009;SDS011;40903;51.638;7.528;2023-08-06T10:51:21;3.70;;;2.13;;
55009;SDS011;40903;51.638;7.528;2023-08-06T10:53:48;3.13;;;2.10;;
55009;SDS011;40903;51.638;7.528;2023-08-06T10:56:15;7.20;;;1.90;;
55009;SDS011;40903;51.638;7.528;2023-08-06T10:58:42;2.13;;;1.50;;
55009;SDS011;40903;51.638;7.528;2023-08-06T11:01:09;2.10;;;1.90;;
55009;SDS011;40903;51.638;7.528;2023-08-06T11:03:35;2.23;;;1.83;;
55009;SDS011;40903;51.638;7.528;2023-08-06T11:06:01;2.37;;;1.67;;
55009;SDS011;40903;51.638;7.528;2023-08-06T11:08:28;1.73;;;1.63;;
55009;SDS011;40903;51.638;7.528;2023-08-06T11:11:12;2.53;;;2.00;;
55009;SDS011;40903;51.638;7.528;2023-08-06T11:13:42;2.17;;;1.70;;
55009;SDS011;40903;51.638;7.528;2023-08-06T11:16:15;3.03;;;2.20;;
55009;SDS011;40903;51.638;7.528;2023-08-06T11:18:49;1.97;;;1.70;;
55009;SDS011;40903;51.638;7.528;2023-08-06T11:21:18;2.83;;;1.73;;
55009;SDS011;40903;51.638;7.528;2023-08-06T11:23:47;4.00;;;2.13;;
55009;SDS011;40903;51.638;7.528;2023-08-06T11:26:18;4.97;;;2.57;;
55009;SDS011;40903;51.638;7.528;2023-08-06T11:28:43;2.00;;;1.80;;
55009;SDS011;40903;51.638;7.528;2023-08-06T11:31:18;3.40;;;2.40;;
55009;SDS011;40903;51.638;7.528;2023-08-06T11:33:44;3.97;;;2.07;;
55009;SDS011;40903;51.638;7.528;2023-08-06T11:36:09;3.23;;;1.80;;
55009;SDS011;40903;51.638;7.528;2023-08-06T11:38:34;3.20;;;1.83;;
55009;SDS011;40903;51.638;7.528;2023-08-06T11:41:00;2.50;;;1.73;;
55009;SDS011;40903;51.638;7.528;2023-08-06T11:43:25;2.13;;;1.60;;
55009;SDS011;40903;51.638;7.528;2023-08-06T11:45:51;2.57;;;1.87;;
55009;SDS011;40903;51.638;7.528;2023-08-06T11:48:19;2.27;;;1.80;;
55009;SDS011;40903;51.638;7.528;2023-08-06T11:50:44;3.47;;;1.80;;
55009;SDS011;40903;51.638;7.528;2023-08-06T11:53:12;2.03;;;1.83;;
55009;SDS011;40903;51.638;7.528;2023-08-06T11:55:39;2.33;;;1.50;;
55009;SDS011;40903;51.638;7.528;2023-08-06T11:58:06;2.37;;;2.00;;
55009;SDS011;40903;51.638;7.528;2023-08-06T12:00:31;2.17;;;1.97;;
55009;SDS011;40903;51.638;7.528;2023-08-06T12:02:56;3.37;;;2.20;;
55009;SDS011;40903;51.638;7.528;2023-08-06T12:05:23;2.20;;;2.00;;
55009;SDS011;40903;51.638;7.528;2023-08-06T12:07:54;2.10;;;1.80;;
55009;SDS011;40903;51.638;7.528;2023-08-06T12:10:21;3.30;;;2.00;;
55009;SDS011;40903;51.638;7.528;2023-08-06T12:12:49;1.77;;;1.63;;
55009;SDS011;40903;51.638;7.528;2023-08-06T12:15:15;2.20;;;1.87;;
55009;SDS011;40903;51.638;7.528;2023-08-06T12:17:41;3.27;;;2.10;;
55009;SDS011;40903;51.638;7.528;2023-08-06T12:20:07;4.93;;;2.13;;
55009;SDS011;40903;51.638;7.528;2023-08-06T12:22:33;3.10;;;2.33;;
55009;SDS011;40903;51.638;7.528;2023-08-06T12:25:06;2.30;;;2.10;;
55009;SDS011;40903;51.638;7.528;2023-08-06T12:27:37;2.50;;;2.10;;
55009;SDS011;40903;51.638;7.528;2023-08-06T12:30:05;2.90;;;2.60;;
55009;SDS011;40903;51.638;7.528;2023-08-06T12:32:30;3.37;;;2.07;;
55009;SDS011;40903;51.638;7.528;2023-08-06T12:34:56;3.13;;;2.40;;
55009;SDS011;40903;51.638;7.528;2023-08-06T12:37:22;2.50;;;2.30;;
55009;SDS011;40903;51.638;7.528;2023-08-06T12:39:49;2.70;;;2.27;;
55009;SDS011;40903;51.638;7.528;2023-08-06T12:42:14;3.63;;;2.37;;
55009;SDS011;40903;51.638;7.528;2023-08-06T12:44:40;5.57;;;2.90;;
55009;SDS011;40903;51.638;7.528;2023-08-06T12:47:06;2.93;;;2.63;;
55009;SDS011;40903;51.638;7.528;2023-08-06T12:49:32;2.87;;;2.67;;
55009;SDS011;40903;51.638;7.528;2023-08-06T12:51:58;3.47;;;3.17;;
55009;SDS011;40903;51.638;7.528;2023-08-06T12:54:25;3.57;;;3.27;;
55009;SDS011;40903;51.638;7.528;2023-08-06T12:56:50;4.80;;;4.40;;
55009;SDS011;40903;51.638;7.528;2023-08-06T12:59:16;5.63;;;5.13;;
55009;SDS011;40903;51.638;7.528;2023-08-06T13:01:42;7.87;;;7.17;;
55009;SDS011;40903;51.638;7.528;2023-08-06T13:04:09;8.13;;;7.33;;
55009;SDS011;40903;51.638;7.528;2023-08-06T13:06:34;8.60;;;7.83;;
55009;SDS011;40903;51.638;7.528;2023-08-06T13:09:02;8.23;;;7.43;;
55009;SDS011;40903;51.638;7.528;2023-08-06T13:11:28;7.53;;;6.60;;
55009;SDS011;40903;51.638;7.528;2023-08-06T13:13:56;5.83;;;5.33;;
55009;SDS011;40903;51.638;7.528;2023-08-06T13:16:24;5.30;;;4.40;;
55009;SDS011;40903;51.638;7.528;2023-08-06T13:18:49;5.63;;;4.40;;
55009;SDS011;40903;51.638;7.528;2023-08-06T13:21:15;4.47;;;3.87;;
55009;SDS011;40903;51.638;7.528;2023-08-06T13:23:40;4.00;;;3.70;;
55009;SDS011;40903;51.638;7.528;2023-08-06T13:26:06;3.17;;;2.93;;
55009;SDS011;40903;51.638;7.528;2023-08-06T13:28:31;2.67;;;2.43;;
55009;SDS011;40903;51.638;7.528;2023-08-06T13:30:56;2.10;;;1.63;;
55009;SDS011;40903;51.638;7.528;2023-08-06T13:33:22;2.23;;;1.70;;
55009;SDS011;40903;51.638;7.528;2023-08-06T13:35:47;6.57;;;5.17;;
55009;SDS011;40903;51.638;7.528;2023-08-06T13:38:12;1.67;;;1.30;;
55009;SDS011;40903;51.638;7.528;2023-08-06T13:40:38;1.60;;;1.30;;
55009;SDS011;40903;51.638;7.528;2023-08-06T13:43:03;1.27;;;1.17;;
55009;SDS011;40903;51.638;7.528;2023-08-06T13:45:28;1.17;;;1.07;;
55009;SDS011;40903;51.638;7.528;2023-08-06T13:47:56;1.10;;;1.00;;
55009;SDS011;40903;51.638;7.528;2023-08-06T13:50:21;1.20;;;0.87;;
55009;SDS011;40903;51.638;7.528;2023-08-06T13:52:47;0.70;;;0.70;;
55009;SDS011;40903;51.638;7.528;2023-08-06T13:55:12;2.37;;;1.10;;
55009;SDS011;40903;51.638;7.528;2023-08-06T13:57:38;1.90;;;1.00;;
55009;SDS011;40903;51.638;7.528;2023-08-06T14:00:03;1.30;;;1.20;;
55009;SDS011;40903;51.638;7.528;2023-08-06T14:02:30;2.63;;;1.30;;
55009;SDS011;40903;51.638;7.528;2023-08-06T14:04:55;2.00;;;1.07;;
55009;SDS011;40903;51.638;7.528;2023-08-06T14:07:21;1.53;;;1.27;;
55009;SDS011;40903;51.638;7.528;2023-08-06T14:09:46;2.03;;;0.90;;
55009;SDS011;40903;51.638;7.528;2023-08-06T14:12:12;3.47;;;1.10;;
55009;SDS011;40903;51.638;7.528;2023-08-06T14:14:38;2.10;;;1.23;;
55009;SDS011;40903;51.638;7.528;2023-08-06T14:17:04;2.20;;;1.17;;
55009;SDS011;40903;51.638;7.528;2023-08-06T14:19:30;1.43;;;1.00;;
55009;SDS011;40903;51.638;7.528;2023-08-06T14:21:55;3.43;;;0.90;;
55009;SDS011;40903;51.638;7.528;2023-08-06T14:24:20;3.33;;;0.93;;
55009;SDS011;40903;51.638;7.528;2023-08-06T14:26:46;1.23;;;1.00;;
55009;SDS011;40903;51.638;7.528;2023-08-06T14:29:11;0.90;;;0.80;;
55009;SDS011;40903;51.638;7.528;2023-08-06T14:31:38;3.63;;;0.90;;
55009;SDS011;40903;51.638;7.528;2023-08-06T14:34:04;1.67;;;0.97;;
55009;SDS011;40903;51.638;7.528;2023-08-06T14:36:29;1.00;;;0.83;;
55009;SDS011;40903;51.638;7.528;2023-08-06T14:38:55;2.63;;;0.90;;
55009;SDS011;40903;51.638;7.528;2023-08-06T14:41:20;2.67;;;0.90;;
55009;SDS011;40903;51.638;7.528;2023-08-06T14:43:46;1.63;;;0.90;;
55009;SDS011;40903;51.638;7.528;2023-08-06T14:46:11;1.37;;;0.93;;
55009;SDS011;40903;51.638;7.528;2023-08-06T14:48:37;2.73;;;1.10;;
55009;SDS011;40903;51.638;7.528;2023-08-06T14:51:04;2.87;;;1.23;;